• Join FlightAware (Why Join?)
  • Login
  • US Flag 
08:07PM EDT


 

Airport Tracker/Info


-or-


 

Live Flight TrackerFlight Track Log ✈ SWA962 ✈ 21-Jun-2013 ✈ KGSP - KBWI

Flight Track Log - Related Links

Times and Time Zones

All times are in EDT time to prevent confusion due to time zone crossing. See the SWA962 flight status page for this flight to view local times or setup timezone preferences in your user account.

Time Position Orientation Groundspeed Altitude Reporting Facility
EDT Latitude Longitude Course Direction KTS MPH feet Rate Location/Type
08:03PM 34.9647 -82.1303 57° Northeast 193 222 5,600  Level Atlanta Center
08:04PM 35.0375 -82.1083 14° North 224 258 8,400 2,400 Climbing Atlanta Center
08:05PM 35.1186 -82.0861 13° North 261 300 10,500 3,000 Climbing Atlanta Center
08:07PM 35.2903 -81.9333 North  Level FlightAware Approximate
08:07PM 35.3075 -82.0256 15° North 345 397 17,500  Level Atlanta Center
08:08PM 35.4047 -81.9825 20° North 364 419 20,100 2,700 Climbing Atlanta Center
08:09PM 35.4464 -81.8592 67° East 335 386 22,900 2,580 Climbing Atlanta Center
08:10PM 35.4900 -81.7356 67° East 380 437 25,300 2,040 Climbing Atlanta Center
08:11PM 35.5275 -81.6197 68° East 396 456 27,000 1,800 Climbing Atlanta Center
08:12PM 35.5728 -81.4831 68° East 419 482 28,900 1,620 Climbing Atlanta Center
08:13PM 35.6217 -81.3308 68° East 424 488 30,300 1,680 Climbing Atlanta Center
08:14PM 35.6725 -81.1883 66° East 455 524 32,300 1,320 Climbing Atlanta Center
08:15PM 35.7461 -81.0350 59° Northeast 473 544 33,000 300 Climbing Atlanta Center
08:16PM 35.8094 -80.8917 61° Northeast 466 536 33,000  Level Atlanta Center
08:17PM 35.8683 -80.7536 62° Northeast 466 536 33,000  Level Atlanta Center
08:19PM 35.9872 -80.4847 61° Northeast 470 541 33,000  Level Washington Center
08:20PM 36.0472 -80.3394 63° Northeast 464 534 33,000  Level Washington Center
08:21PM 36.1089 -80.2019 61° Northeast 458 527 33,000  Level Washington Center
08:22PM 36.1636 -80.0817 61° Northeast 458 527 33,000  Level Washington Center
08:23PM 36.2231 -79.9433 62° Northeast 451 519 33,000  Level Washington Center
08:24PM 36.2842 -79.8050 61° Northeast 446 513 33,000  Level Washington Center
08:25PM 36.3483 -79.6458 63° Northeast 457 526 33,000  Level Washington Center
08:26PM 36.4092 -79.5072 61° Northeast 457 526 33,000  Level Washington Center
08:27PM 36.4658 -79.3681 63° Northeast 457 526 33,000  Level Washington Center
08:28PM 36.5267 -79.2261 62° Northeast 457 526 33,000  Level Washington Center
08:29PM 36.5889 -79.0919 60° Northeast 457 526 33,000 -480 Level Washington Center
08:30PM 36.6472 -78.9522 62° Northeast 452 520 32,100 -1,800 Descending Washington Center
08:31PM 36.6989 -78.8172 64° Northeast 452 520 29,400 -1,620 Descending Washington Center
08:32PM 36.7650 -78.6850 58° Northeast 452 520 29,000 -540 Descending Washington Center
08:33PM 36.8414 -78.5481 55° Northeast 452 520 28,400 -1,020 Descending Washington Center
08:34PM 36.9111 -78.4258 54° Northeast 440 506 27,000 -720 Descending Washington Center
08:35PM 36.9969 -78.3225 44° Northeast 432 497 27,000  Level Washington Center
08:36PM 37.0925 -78.2478 32° Northeast 428 493 27,000  Level Washington Center
08:37PM 37.2011 -78.1550 34° Northeast 433 498 27,000 -60 Level Washington Center
08:38PM 37.3028 -78.0722 33° Northeast 428 493 26,900 -600 Descending Washington Center
08:39PM 37.4047 -77.9842 34° Northeast 428 493 25,800 -1,080 Descending Washington Center
08:40PM 37.5003 -77.8981 36° Northeast 428 493 24,800 -1,020 Descending Washington Center
08:41PM 37.6000 -77.8172 33° Northeast 428 493 23,800 -900 Descending Washington Center
08:42PM 37.6975 -77.7333 34° Northeast 428 493 23,000 -420 Descending Washington Center
08:43PM 37.7928 -77.6494 35° Northeast 428 493 23,000  Level Washington Center
08:44PM 37.8878 -77.5706 33° Northeast 428 493 23,000  Level Washington Center
08:45PM 37.9831 -77.4861 35° Northeast 423 487 23,000 -420 Level Washington Center
08:46PM 38.0675 -77.4169 33° Northeast 417 480 22,200 -960 Descending Washington Center
08:47PM 38.1711 -77.3217 36° Northeast 417 480 21,100 -1,920 Descending Washington Center
08:48PM 38.2514 -77.2547 33° Northeast 400 460 18,400 -2,400 Descending Washington Center
08:49PM 38.3378 -77.1800 34° Northeast 388 447 16,300 -1,980 Descending Washington Center
08:50PM 38.4267 -77.0892 39° Northeast 378 435 14,500 -2,040 Descending Washington Center
08:51PM 38.4944 -77.0028 45° Northeast 355 409 12,300 -1,680 Descending Washington Center
08:52PM 38.5642 -76.9192 43° Northeast 342 394 11,200 -1,080 Descending Washington Center
08:53PM 38.6297 -76.8381 44° Northeast 331 381 10,200 -1,020 Descending Washington Center
08:54PM 38.6908 -76.7619 44° Northeast 315 362 9,200 -960 Descending Washington Center
08:55PM 38.7333 -76.6800 56° Northeast 295 339 8,300 -1,140 Descending Washington Center
08:55PM 38.7667 -76.6167 56° Northeast 276 318 7,400 -1,440 Descending Potomac TRACON
08:56PM 38.8000 -76.5333 63° Northeast 281 323 6,000 -900 Descending Potomac TRACON
08:57PM 38.8833 -76.5500 351° North 270 311 5,600 -720 Descending Potomac TRACON
08:58PM 38.9333 -76.5833 333° Northwest 272 313 4,700 -900 Descending Potomac TRACON
08:59PM 39.0000 -76.6500 322° Northwest 275 316 4,000 -360 Descending Potomac TRACON
09:00PM 39.0333 -76.7333 297° West 273 314 4,000 -420 Level Potomac TRACON
09:01PM 39.0833 -76.8000 314° West 274 315 3,200 -780 Descending Potomac TRACON
09:02PM 39.1333 -76.8333 333° Northwest 251 289 2,600 -660 Descending Potomac TRACON
09:03PM 39.1833 -76.8000 27° Northeast 207 238 1,900 -780 Descending Potomac TRACON
09:04PM 39.1833 -76.7500 90° East 142 163 1,200 -720 Descending Potomac TRACON
09:05PM 39.1833 -76.7000 90° East 128 147 500 -660 Descending Potomac TRACON
09:07PM 39.1667 -76.6667 339° North  Level FlightAware Approximate
09:14PM 39.1754 -76.6683 339° North  Level Estimated
09:15PM 39.1754 -76.6683 339° North  Level Estimated
09:16PM 39.1754 -76.6683 339° North  Level Estimated